sensor_id;sensor_type;location;lat;lon;timestamp;P1;durP1;ratioP1;P2;durP2;ratioP2
83690;SDS011;73671;43.220;0.064;2024-02-21T00:00:41;32.90;;;16.55;;
83690;SDS011;73671;43.220;0.064;2024-02-21T00:03:06;30.45;;;16.20;;
83690;SDS011;73671;43.220;0.064;2024-02-21T00:05:32;34.70;;;16.70;;
83690;SDS011;73671;43.220;0.064;2024-02-21T00:07:58;31.10;;;16.15;;
83690;SDS011;73671;43.220;0.064;2024-02-21T00:10:24;24.13;;;13.80;;
83690;SDS011;73671;43.220;0.064;2024-02-21T00:12:50;26.63;;;14.63;;
83690;SDS011;73671;43.220;0.064;2024-02-21T00:15:16;27.65;;;15.45;;
83690;SDS011;73671;43.220;0.064;2024-02-21T00:17:42;23.75;;;13.45;;
83690;SDS011;73671;43.220;0.064;2024-02-21T00:20:08;24.55;;;13.25;;
83690;SDS011;73671;43.220;0.064;2024-02-21T00:22:33;27.92;;;13.57;;
83690;SDS011;73671;43.220;0.064;2024-02-21T00:24:59;24.20;;;12.25;;
83690;SDS011;73671;43.220;0.064;2024-02-21T00:27:24;22.67;;;12.18;;
83690;SDS011;73671;43.220;0.064;2024-02-21T00:29:50;23.48;;;12.30;;
83690;SDS011;73671;43.220;0.064;2024-02-21T00:32:15;24.67;;;12.85;;
83690;SDS011;73671;43.220;0.064;2024-02-21T00:34:41;20.70;;;12.15;;
83690;SDS011;73671;43.220;0.064;2024-02-21T00:37:06;20.60;;;12.32;;
83690;SDS011;73671;43.220;0.064;2024-02-21T00:39:31;23.23;;;12.48;;
83690;SDS011;73671;43.220;0.064;2024-02-21T00:41:57;18.55;;;10.88;;
83690;SDS011;73671;43.220;0.064;2024-02-21T00:44:22;19.65;;;10.70;;
83690;SDS011;73671;43.220;0.064;2024-02-21T00:46:48;10.98;;;6.72;;
83690;SDS011;73671;43.220;0.064;2024-02-21T00:49:13;11.80;;;6.90;;
83690;SDS011;73671;43.220;0.064;2024-02-21T00:51:38;15.27;;;6.93;;
83690;SDS011;73671;43.220;0.064;2024-02-21T00:54:04;11.10;;;6.13;;
83690;SDS011;73671;43.220;0.064;2024-02-21T00:56:29;10.38;;;6.10;;
83690;SDS011;73671;43.220;0.064;2024-02-21T00:58:55;16.35;;;5.90;;
83690;SDS011;73671;43.220;0.064;2024-02-21T01:01:21;12.10;;;5.97;;
83690;SDS011;73671;43.220;0.064;2024-02-21T01:03:47;11.15;;;5.60;;
83690;SDS011;73671;43.220;0.064;2024-02-21T01:06:13;9.15;;;5.13;;
83690;SDS011;73671;43.220;0.064;2024-02-21T01:08:38;14.93;;;5.20;;
83690;SDS011;73671;43.220;0.064;2024-02-21T01:11:04;9.20;;;5.10;;
83690;SDS011;73671;43.220;0.064;2024-02-21T01:13:29;9.80;;;5.20;;
83690;SDS011;73671;43.220;0.064;2024-02-21T01:15:54;12.75;;;5.50;;
83690;SDS011;73671;43.220;0.064;2024-02-21T01:18:20;8.98;;;5.45;;
83690;SDS011;73671;43.220;0.064;2024-02-21T01:20:45;10.15;;;5.68;;
83690;SDS011;73671;43.220;0.064;2024-02-21T01:23:10;9.30;;;6.03;;
83690;SDS011;73671;43.220;0.064;2024-02-21T01:25:36;9.48;;;5.95;;
83690;SDS011;73671;43.220;0.064;2024-02-21T01:28:01;13.25;;;6.35;;
83690;SDS011;73671;43.220;0.064;2024-02-21T01:30:26;18.50;;;8.30;;
83690;SDS011;73671;43.220;0.064;2024-02-21T01:32:52;13.35;;;8.02;;
83690;SDS011;73671;43.220;0.064;2024-02-21T01:35:17;12.23;;;7.82;;
83690;SDS011;73671;43.220;0.064;2024-02-21T01:37:43;13.55;;;8.60;;
83690;SDS011;73671;43.220;0.064;2024-02-21T01:40:09;14.82;;;8.68;;
83690;SDS011;73671;43.220;0.064;2024-02-21T01:42:37;17.80;;;9.02;;
83690;SDS011;73671;43.220;0.064;2024-02-21T01:45:04;16.27;;;9.90;;
83690;SDS011;73671;43.220;0.064;2024-02-21T01:47:30;21.20;;;10.15;;
83690;SDS011;73671;43.220;0.064;2024-02-21T01:49:55;16.52;;;9.85;;
83690;SDS011;73671;43.220;0.064;2024-02-21T01:52:21;20.33;;;9.52;;
83690;SDS011;73671;43.220;0.064;2024-02-21T01:54:46;18.38;;;8.95;;
83690;SDS011;73671;43.220;0.064;2024-02-21T01:57:13;14.90;;;8.80;;
83690;SDS011;73671;43.220;0.064;2024-02-21T01:59:39;18.20;;;8.35;;
83690;SDS011;73671;43.220;0.064;2024-02-21T02:02:05;17.13;;;8.85;;
83690;SDS011;73671;43.220;0.064;2024-02-21T02:04:30;15.50;;;8.45;;
83690;SDS011;73671;43.220;0.064;2024-02-21T02:06:57;15.52;;;8.57;;
83690;SDS011;73671;43.220;0.064;2024-02-21T02:09:27;12.15;;;7.78;;
83690;SDS011;73671;43.220;0.064;2024-02-21T02:11:53;14.82;;;8.07;;
83690;SDS011;73671;43.220;0.064;2024-02-21T02:14:18;12.32;;;7.63;;
83690;SDS011;73671;43.220;0.064;2024-02-21T02:16:47;15.23;;;7.45;;
83690;SDS011;73671;43.220;0.064;2024-02-21T02:19:13;12.20;;;7.97;;
83690;SDS011;73671;43.220;0.064;2024-02-21T02:21:39;13.00;;;7.47;;
83690;SDS011;73671;43.220;0.064;2024-02-21T02:24:07;15.65;;;8.38;;
83690;SDS011;73671;43.220;0.064;2024-02-21T02:26:33;14.57;;;7.80;;
83690;SDS011;73671;43.220;0.064;2024-02-21T02:28:58;13.95;;;7.68;;
83690;SDS011;73671;43.220;0.064;2024-02-21T02:31:26;13.15;;;7.68;;
83690;SDS011;73671;43.220;0.064;2024-02-21T02:33:52;14.35;;;7.80;;
83690;SDS011;73671;43.220;0.064;2024-02-21T02:36:18;11.73;;;7.72;;
83690;SDS011;73671;43.220;0.064;2024-02-21T02:38:43;13.85;;;7.07;;
83690;SDS011;73671;43.220;0.064;2024-02-21T02:41:08;10.85;;;6.88;;
83690;SDS011;73671;43.220;0.064;2024-02-21T02:43:34;11.90;;;6.85;;
83690;SDS011;73671;43.220;0.064;2024-02-21T02:45:59;16.02;;;7.20;;
83690;SDS011;73671;43.220;0.064;2024-02-21T02:48:25;13.68;;;7.75;;
83690;SDS011;73671;43.220;0.064;2024-02-21T02:50:50;12.52;;;7.88;;
83690;SDS011;73671;43.220;0.064;2024-02-21T02:53:15;14.73;;;7.22;;
83690;SDS011;73671;43.220;0.064;2024-02-21T02:55:41;13.70;;;6.85;;
83690;SDS011;73671;43.220;0.064;2024-02-21T02:58:06;13.20;;;6.95;;
83690;SDS011;73671;43.220;0.064;2024-02-21T03:00:31;11.80;;;7.25;;
83690;SDS011;73671;43.220;0.064;2024-02-21T03:03:01;13.60;;;7.57;;
83690;SDS011;73671;43.220;0.064;2024-02-21T03:05:28;14.57;;;7.40;;
83690;SDS011;73671;43.220;0.064;2024-02-21T03:07:54;11.27;;;7.00;;
83690;SDS011;73671;43.220;0.064;2024-02-21T03:10:20;10.65;;;7.18;;
83690;SDS011;73671;43.220;0.064;2024-02-21T03:12:46;13.70;;;6.90;;
83690;SDS011;73671;43.220;0.064;2024-02-21T03:15:12;13.20;;;7.00;;
83690;SDS011;73671;43.220;0.064;2024-02-21T03:17:38;15.43;;;6.95;;
83690;SDS011;73671;43.220;0.064;2024-02-21T03:20:04;16.42;;;7.50;;
83690;SDS011;73671;43.220;0.064;2024-02-21T03:22:31;11.98;;;6.90;;
83690;SDS011;73671;43.220;0.064;2024-02-21T03:24:57;9.70;;;6.40;;
83690;SDS011;73671;43.220;0.064;2024-02-21T03:27:23;10.77;;;6.95;;
83690;SDS011;73671;43.220;0.064;2024-02-21T03:29:48;16.35;;;7.70;;
83690;SDS011;73671;43.220;0.064;2024-02-21T03:32:13;11.18;;;7.05;;
83690;SDS011;73671;43.220;0.064;2024-02-21T03:34:39;12.07;;;7.38;;
83690;SDS011;73671;43.220;0.064;2024-02-21T03:37:04;13.23;;;6.93;;
83690;SDS011;73671;43.220;0.064;2024-02-21T03:39:33;14.57;;;8.25;;
83690;SDS011;73671;43.220;0.064;2024-02-21T03:41:58;11.38;;;7.13;;
83690;SDS011;73671;43.220;0.064;2024-02-21T03:44:29;14.43;;;7.07;;
83690;SDS011;73671;43.220;0.064;2024-02-21T03:46:55;13.43;;;7.75;;
83690;SDS011;73671;43.220;0.064;2024-02-21T03:49:21;12.52;;;7.22;;
83690;SDS011;73671;43.220;0.064;2024-02-21T03:51:46;11.52;;;6.85;;
83690;SDS011;73671;43.220;0.064;2024-02-21T03:54:12;10.48;;;6.63;;
83690;SDS011;73671;43.220;0.064;2024-02-21T03:56:38;11.70;;;7.30;;
83690;SDS011;73671;43.220;0.064;2024-02-21T03:59:05;15.90;;;7.18;;
83690;SDS011;73671;43.220;0.064;2024-02-21T04:01:31;10.15;;;6.13;;
83690;SDS011;73671;43.220;0.064;2024-02-21T04:03:56;8.02;;;5.57;;
83690;SDS011;73671;43.220;0.064;2024-02-21T04:06:22;11.68;;;5.45;;
83690;SDS011;73671;43.220;0.064;2024-02-21T04:08:47;10.20;;;5.07;;
83690;SDS011;73671;43.220;0.064;2024-02-21T04:11:12;9.52;;;5.28;;
83690;SDS011;73671;43.220;0.064;2024-02-21T04:13:38;10.27;;;5.82;;
83690;SDS011;73671;43.220;0.064;2024-02-21T04:16:03;13.23;;;6.15;;
83690;SDS011;73671;43.220;0.064;2024-02-21T04:18:30;11.10;;;6.22;;
83690;SDS011;73671;43.220;0.064;2024-02-21T04:20:56;10.25;;;6.00;;
83690;SDS011;73671;43.220;0.064;2024-02-21T04:23:21;14.57;;;6.63;;
83690;SDS011;73671;43.220;0.064;2024-02-21T04:25:46;12.55;;;6.47;;
83690;SDS011;73671;43.220;0.064;2024-02-21T04:28:12;11.85;;;6.20;;
83690;SDS011;73671;43.220;0.064;2024-02-21T04:30:38;11.05;;;6.13;;
83690;SDS011;73671;43.220;0.064;2024-02-21T04:33:03;14.52;;;6.88;;
83690;SDS011;73671;43.220;0.064;2024-02-21T04:35:29;13.75;;;6.68;;
83690;SDS011;73671;43.220;0.064;2024-02-21T04:37:54;13.10;;;6.28;;
83690;SDS011;73671;43.220;0.064;2024-02-21T04:40:20;8.50;;;5.20;;
83690;SDS011;73671;43.220;0.064;2024-02-21T04:42:45;9.65;;;5.35;;
83690;SDS011;73671;43.220;0.064;2024-02-21T04:45:10;9.25;;;4.82;;
83690;SDS011;73671;43.220;0.064;2024-02-21T04:47:36;9.75;;;4.70;;
83690;SDS011;73671;43.220;0.064;2024-02-21T04:50:01;7.28;;;4.80;;
83690;SDS011;73671;43.220;0.064;2024-02-21T04:52:27;5.57;;;4.47;;
83690;SDS011;73671;43.220;0.064;2024-02-21T04:54:52;7.43;;;3.95;;
83690;SDS011;73671;43.220;0.064;2024-02-21T04:57:17;6.38;;;4.20;;
83690;SDS011;73671;43.220;0.064;2024-02-21T04:59:46;6.07;;;4.63;;
83690;SDS011;73671;43.220;0.064;2024-02-21T05:02:15;7.00;;;4.70;;
83690;SDS011;73671;43.220;0.064;2024-02-21T05:04:41;10.65;;;4.50;;
83690;SDS011;73671;43.220;0.064;2024-02-21T05:07:07;8.68;;;5.40;;
83690;SDS011;73671;43.220;0.064;2024-02-21T05:09:33;9.32;;;5.05;;
83690;SDS011;73671;43.220;0.064;2024-02-21T05:11:58;10.88;;;4.88;;
83690;SDS011;73671;43.220;0.064;2024-02-21T05:14:24;8.27;;;4.88;;
83690;SDS011;73671;43.220;0.064;2024-02-21T05:16:50;7.75;;;4.43;;
83690;SDS011;73671;43.220;0.064;2024-02-21T05:19:15;11.55;;;4.53;;
83690;SDS011;73671;43.220;0.064;2024-02-21T05:21:40;7.30;;;4.38;;
83690;SDS011;73671;43.220;0.064;2024-02-21T05:24:06;7.80;;;4.82;;
83690;SDS011;73671;43.220;0.064;2024-02-21T05:26:31;8.02;;;5.25;;
83690;SDS011;73671;43.220;0.064;2024-02-21T05:28:57;10.13;;;4.13;;
83690;SDS011;73671;43.220;0.064;2024-02-21T05:31:24;8.88;;;4.05;;
83690;SDS011;73671;43.220;0.064;2024-02-21T05:33:49;8.20;;;4.22;;
83690;SDS011;73671;43.220;0.064;2024-02-21T05:36:14;8.40;;;4.00;;
83690;SDS011;73671;43.220;0.064;2024-02-21T05:38:40;6.03;;;4.15;;
83690;SDS011;73671;43.220;0.064;2024-02-21T05:41:05;8.25;;;4.30;;
83690;SDS011;73671;43.220;0.064;2024-02-21T05:43:31;5.78;;;3.75;;
83690;SDS011;73671;43.220;0.064;2024-02-21T05:45:56;7.85;;;3.67;;
83690;SDS011;73671;43.220;0.064;2024-02-21T05:48:22;10.27;;;4.28;;
83690;SDS011;73671;43.220;0.064;2024-02-21T05:50:48;5.57;;;3.80;;
83690;SDS011;73671;43.220;0.064;2024-02-21T05:53:13;4.53;;;3.65;;
83690;SDS011;73671;43.220;0.064;2024-02-21T05:55:39;7.28;;;4.00;;
83690;SDS011;73671;43.220;0.064;2024-02-21T05:58:04;5.07;;;4.05;;
83690;SDS011;73671;43.220;0.064;2024-02-21T06:00:31;4.80;;;3.47;;
83690;SDS011;73671;43.220;0.064;2024-02-21T06:02:56;6.10;;;3.45;;
83690;SDS011;73671;43.220;0.064;2024-02-21T06:05:22;5.45;;;3.75;;
83690;SDS011;73671;43.220;0.064;2024-02-21T06:07:47;7.20;;;4.30;;
83690;SDS011;73671;43.220;0.064;2024-02-21T06:10:12;8.02;;;3.70;;
83690;SDS011;73671;43.220;0.064;2024-02-21T06:12:38;8.10;;;3.50;;
83690;SDS011;73671;43.220;0.064;2024-02-21T06:15:03;4.57;;;3.25;;
83690;SDS011;73671;43.220;0.064;2024-02-21T06:17:29;6.88;;;3.58;;
83690;SDS011;73671;43.220;0.064;2024-02-21T06:19:55;12.15;;;3.90;;
83690;SDS011;73671;43.220;0.064;2024-02-21T06:22:20;6.45;;;4.28;;
83690;SDS011;73671;43.220;0.064;2024-02-21T06:24:45;5.88;;;4.00;;
83690;SDS011;73671;43.220;0.064;2024-02-21T06:27:11;5.20;;;3.67;;
83690;SDS011;73671;43.220;0.064;2024-02-21T06:29:36;4.47;;;3.47;;
83690;SDS011;73671;43.220;0.064;2024-02-21T06:32:02;7.60;;;4.68;;
83690;SDS011;73671;43.220;0.064;2024-02-21T06:34:28;4.38;;;3.60;;
83690;SDS011;73671;43.220;0.064;2024-02-21T06:36:53;9.88;;;3.80;;
83690;SDS011;73671;43.220;0.064;2024-02-21T06:39:19;9.85;;;3.60;;
83690;SDS011;73671;43.220;0.064;2024-02-21T06:41:44;5.03;;;3.40;;
83690;SDS011;73671;43.220;0.064;2024-02-21T06:44:10;3.17;;;2.88;;
83690;SDS011;73671;43.220;0.064;2024-02-21T06:46:36;6.43;;;2.83;;
83690;SDS011;73671;43.220;0.064;2024-02-21T06:49:02;4.97;;;3.08;;
83690;SDS011;73671;43.220;0.064;2024-02-21T06:51:30;5.53;;;3.00;;
83690;SDS011;73671;43.220;0.064;2024-02-21T06:53:56;5.78;;;2.92;;
83690;SDS011;73671;43.220;0.064;2024-02-21T06:56:23;7.40;;;2.95;;
83690;SDS011;73671;43.220;0.064;2024-02-21T06:58:53;6.88;;;3.10;;
83690;SDS011;73671;43.220;0.064;2024-02-21T07:01:22;8.25;;;2.88;;
83690;SDS011;73671;43.220;0.064;2024-02-21T07:03:47;4.47;;;3.45;;
83690;SDS011;73671;43.220;0.064;2024-02-21T07:06:13;3.72;;;3.33;;
83690;SDS011;73671;43.220;0.064;2024-02-21T07:08:38;3.25;;;2.80;;
83690;SDS011;73671;43.220;0.064;2024-02-21T07:11:04;5.35;;;4.55;;
83690;SDS011;73671;43.220;0.064;2024-02-21T07:13:30;5.47;;;2.95;;
83690;SDS011;73671;43.220;0.064;2024-02-21T07:15:55;3.63;;;2.60;;
83690;SDS011;73671;43.220;0.064;2024-02-21T07:18:21;5.18;;;2.70;;
83690;SDS011;73671;43.220;0.064;2024-02-21T07:20:46;7.13;;;3.08;;
83690;SDS011;73671;43.220;0.064;2024-02-21T07:23:11;3.55;;;2.40;;
83690;SDS011;73671;43.220;0.064;2024-02-21T07:25:37;3.15;;;2.65;;
83690;SDS011;73671;43.220;0.064;2024-02-21T07:28:02;2.53;;;2.28;;
83690;SDS011;73671;43.220;0.064;2024-02-21T07:30:28;3.80;;;2.90;;
83690;SDS011;73671;43.220;0.064;2024-02-21T07:32:53;4.65;;;3.13;;
83690;SDS011;73671;43.220;0.064;2024-02-21T07:35:18;10.55;;;4.05;;
83690;SDS011;73671;43.220;0.064;2024-02-21T07:37:44;9.32;;;3.80;;
83690;SDS011;73671;43.220;0.064;2024-02-21T07:40:13;7.28;;;4.13;;
83690;SDS011;73671;43.220;0.064;2024-02-21T07:42:39;9.35;;;3.45;;
83690;SDS011;73671;43.220;0.064;2024-02-21T07:45:05;4.55;;;3.38;;
83690;SDS011;73671;43.220;0.064;2024-02-21T07:47:31;5.32;;;3.67;;
83690;SDS011;73671;43.220;0.064;2024-02-21T07:49:56;6.82;;;4.03;;
83690;SDS011;73671;43.220;0.064;2024-02-21T07:52:21;5.63;;;3.50;;
83690;SDS011;73671;43.220;0.064;2024-02-21T07:54:47;4.43;;;3.67;;
83690;SDS011;73671;43.220;0.064;2024-02-21T07:57:12;8.30;;;4.65;;
83690;SDS011;73671;43.220;0.064;2024-02-21T07:59:37;16.13;;;8.40;;
83690;SDS011;73671;43.220;0.064;2024-02-21T08:02:03;18.27;;;9.45;;
83690;SDS011;73671;43.220;0.064;2024-02-21T08:04:31;14.63;;;8.40;;
83690;SDS011;73671;43.220;0.064;2024-02-21T08:06:57;11.45;;;6.30;;
83690;SDS011;73671;43.220;0.064;2024-02-21T08:09:26;7.05;;;3.80;;
83690;SDS011;73671;43.220;0.064;2024-02-21T08:11:52;5.57;;;2.45;;
83690;SDS011;73671;43.220;0.064;2024-02-21T08:14:19;6.55;;;2.40;;
83690;SDS011;73671;43.220;0.064;2024-02-21T08:16:44;6.50;;;2.40;;
83690;SDS011;73671;43.220;0.064;2024-02-21T08:19:10;4.07;;;2.55;;
83690;SDS011;73671;43.220;0.064;2024-02-21T08:21:36;5.72;;;2.63;;
83690;SDS011;73671;43.220;0.064;2024-02-21T08:24:01;2.88;;;2.60;;
83690;SDS011;73671;43.220;0.064;2024-02-21T08:26:27;6.35;;;2.90;;
83690;SDS011;73671;43.220;0.064;2024-02-21T08:28:55;3.58;;;2.78;;
83690;SDS011;73671;43.220;0.064;2024-02-21T08:31:23;3.13;;;2.60;;
83690;SDS011;73671;43.220;0.064;2024-02-21T08:33:49;2.70;;;2.30;;
83690;SDS011;73671;43.220;0.064;2024-02-21T08:36:18;2.90;;;2.50;;
83690;SDS011;73671;43.220;0.064;2024-02-21T08:38:47;4.22;;;2.63;;
83690;SDS011;73671;43.220;0.064;2024-02-21T08:41:12;4.03;;;2.47;;
83690;SDS011;73671;43.220;0.064;2024-02-21T08:43:37;8.30;;;2.20;;
83690;SDS011;73671;43.220;0.064;2024-02-21T08:46:03;2.67;;;2.35;;
83690;SDS011;73671;43.220;0.064;2024-02-21T08:48:30;3.03;;;1.90;;
83690;SDS011;73671;43.220;0.064;2024-02-21T08:50:55;5.40;;;1.83;;
83690;SDS011;73671;43.220;0.064;2024-02-21T08:53:20;2.10;;;1.58;;
83690;SDS011;73671;43.220;0.064;2024-02-21T08:55:46;2.55;;;2.05;;
83690;SDS011;73671;43.220;0.064;2024-02-21T08:58:11;5.53;;;1.55;;
83690;SDS011;73671;43.220;0.064;2024-02-21T09:00:37;1.90;;;1.70;;
83690;SDS011;73671;43.220;0.064;2024-02-21T09:03:02;1.70;;;1.50;;
83690;SDS011;73671;43.220;0.064;2024-02-21T09:05:28;3.22;;;1.88;;
83690;SDS011;73671;43.220;0.064;2024-02-21T09:07:53;2.33;;;1.73;;
83690;SDS011;73671;43.220;0.064;2024-02-21T09:10:20;3.00;;;1.90;;
83690;SDS011;73671;43.220;0.064;2024-02-21T09:12:46;2.28;;;1.80;;
83690;SDS011;73671;43.220;0.064;2024-02-21T09:15:12;4.07;;;2.28;;
83690;SDS011;73671;43.220;0.064;2024-02-21T09:17:38;2.92;;;2.13;;
83690;SDS011;73671;43.220;0.064;2024-02-21T09:20:04;3.45;;;2.17;;
83690;SDS011;73671;43.220;0.064;2024-02-21T09:22:31;4.97;;;2.53;;
83690;SDS011;73671;43.220;0.064;2024-02-21T09:24:59;4.20;;;3.00;;
83690;SDS011;73671;43.220;0.064;2024-02-21T09:27:25;5.03;;;3.70;;
83690;SDS011;73671;43.220;0.064;2024-02-21T09:29:50;5.53;;;3.40;;
83690;SDS011;73671;43.220;0.064;2024-02-21T09:32:19;5.30;;;3.50;;
83690;SDS011;73671;43.220;0.064;2024-02-21T09:34:44;8.85;;;2.88;;
83690;SDS011;73671;43.220;0.064;2024-02-21T09:37:10;5.93;;;3.00;;
83690;SDS011;73671;43.220;0.064;2024-02-21T09:39:35;5.60;;;2.70;;
83690;SDS011;73671;43.220;0.064;2024-02-21T09:42:03;7.25;;;2.58;;
83690;SDS011;73671;43.220;0.064;2024-02-21T09:44:41;2.80;;;1.83;;
83690;SDS011;73671;43.220;0.064;2024-02-21T09:47:19;3.22;;;2.20;;
83690;SDS011;73671;43.220;0.064;2024-02-21T09:49:49;2.78;;;2.28;;
83690;SDS011;73671;43.220;0.064;2024-02-21T09:52:15;3.65;;;2.10;;
83690;SDS011;73671;43.220;0.064;2024-02-21T09:54:40;4.75;;;2.00;;
83690;SDS011;73671;43.220;0.064;2024-02-21T09:57:10;3.28;;;2.05;;
83690;SDS011;73671;43.220;0.064;2024-02-21T09:59:36;3.65;;;2.00;;
83690;SDS011;73671;43.220;0.064;2024-02-21T10:02:02;2.38;;;1.45;;
83690;SDS011;73671;43.220;0.064;2024-02-21T10:04:29;2.17;;;1.40;;
83690;SDS011;73671;43.220;0.064;2024-02-21T10:06:55;3.10;;;1.42;;
83690;SDS011;73671;43.220;0.064;2024-02-21T10:11:52;2.13;;;1.30;;
83690;SDS011;73671;43.220;0.064;2024-02-21T10:14:18;1.50;;;1.10;;
83690;SDS011;73671;43.220;0.064;2024-02-21T10:16:48;1.50;;;1.00;;
83690;SDS011;73671;43.220;0.064;2024-02-21T10:19:17;1.75;;;1.00;;
83690;SDS011;73671;43.220;0.064;2024-02-21T10:22:05;3.13;;;0.93;;
83690;SDS011;73671;43.220;0.064;2024-02-21T10:24:35;3.70;;;0.90;;
83690;SDS011;73671;43.220;0.064;2024-02-21T10:27:07;1.90;;;0.88;;
83690;SDS011;73671;43.220;0.064;2024-02-21T10:29:35;1.15;;;0.80;;
83690;SDS011;73671;43.220;0.064;2024-02-21T10:32:08;2.28;;;0.82;;
83690;SDS011;73671;43.220;0.064;2024-02-21T10:34:37;2.08;;;1.10;;
83690;SDS011;73671;43.220;0.064;2024-02-21T10:37:04;0.50;;;0.50;;
83690;SDS011;73671;43.220;0.064;2024-02-21T10:39:31;0.63;;;0.63;;
83690;SDS011;73671;43.220;0.064;2024-02-21T10:41:59;3.00;;;1.42;;
83690;SDS011;73671;43.220;0.064;2024-02-21T10:44:27;2.13;;;1.92;;
83690;SDS011;73671;43.220;0.064;2024-02-21T10:46:55;3.83;;;1.90;;
83690;SDS011;73671;43.220;0.064;2024-02-21T10:49:25;1.65;;;1.45;;
83690;SDS011;73671;43.220;0.064;2024-02-21T10:52:17;1.20;;;1.08;;
83690;SDS011;73671;43.220;0.064;2024-02-21T10:55:04;3.55;;;1.70;;
83690;SDS011;73671;43.220;0.064;2024-02-21T10:57:34;3.10;;;1.33;;
83690;SDS011;73671;43.220;0.064;2024-02-21T11:00:02;1.65;;;1.08;;
83690;SDS011;73671;43.220;0.064;2024-02-21T11:02:33;2.38;;;1.38;;
83690;SDS011;73671;43.220;0.064;2024-02-21T11:04:59;0.80;;;0.80;;
83690;SDS011;73671;43.220;0.064;2024-02-21T11:07:26;0.80;;;0.70;;
83690;SDS011;73671;43.220;0.064;2024-02-21T11:09:52;0.70;;;0.70;;
83690;SDS011;73671;43.220;0.064;2024-02-21T11:12:23;0.70;;;0.70;;
83690;SDS011;73671;43.220;0.064;2024-02-21T11:14:49;0.90;;;0.90;;
83690;SDS011;73671;43.220;0.064;2024-02-21T11:17:18;1.52;;;1.33;;
83690;SDS011;73671;43.220;0.064;2024-02-21T11:19:44;1.45;;;1.10;;
83690;SDS011;73671;43.220;0.064;2024-02-21T11:22:17;1.20;;;0.80;;
83690;SDS011;73671;43.220;0.064;2024-02-21T11:24:43;0.73;;;0.70;;
83690;SDS011;73671;43.220;0.064;2024-02-21T11:27:12;0.98;;;0.85;;
83690;SDS011;73671;43.220;0.064;2024-02-21T11:29:54;1.10;;;0.95;;
83690;SDS011;73671;43.220;0.064;2024-02-21T11:32:21;1.38;;;1.20;;
83690;SDS011;73671;43.220;0.064;2024-02-21T11:34:53;1.45;;;1.35;;
83690;SDS011;73671;43.220;0.064;2024-02-21T11:37:23;0.98;;;0.90;;
83690;SDS011;73671;43.220;0.064;2024-02-21T11:39:50;1.15;;;1.05;;
83690;SDS011;73671;43.220;0.064;2024-02-21T11:42:15;1.50;;;0.80;;
83690;SDS011;73671;43.220;0.064;2024-02-21T11:44:41;1.52;;;0.70;;
83690;SDS011;73671;43.220;0.064;2024-02-21T11:47:07;1.10;;;1.00;;
83690;SDS011;73671;43.220;0.064;2024-02-21T11:49:37;1.92;;;1.35;;
83690;SDS011;73671;43.220;0.064;2024-02-21T11:52:07;2.90;;;1.20;;
83690;SDS011;73671;43.220;0.064;2024-02-21T11:54:33;1.40;;;0.90;;
83690;SDS011;73671;43.220;0.064;2024-02-21T11:56:59;1.73;;;0.90;;
83690;SDS011;73671;43.220;0.064;2024-02-21T11:59:25;1.52;;;1.00;;
83690;SDS011;73671;43.220;0.064;2024-02-21T12:01:52;1.00;;;0.90;;
83690;SDS011;73671;43.220;0.064;2024-02-21T12:04:18;1.20;;;0.90;;
83690;SDS011;73671;43.220;0.064;2024-02-21T12:06:45;1.48;;;1.00;;
83690;SDS011;73671;43.220;0.064;2024-02-21T12:09:14;2.15;;;1.30;;
83690;SDS011;73671;43.220;0.064;2024-02-21T12:11:43;3.20;;;1.40;;
83690;SDS011;73671;43.220;0.064;2024-02-21T12:14:09;3.00;;;1.50;;
83690;SDS011;73671;43.220;0.064;2024-02-21T12:16:35;2.70;;;1.30;;
83690;SDS011;73671;43.220;0.064;2024-02-21T12:19:04;1.30;;;1.10;;
83690;SDS011;73671;43.220;0.064;2024-02-21T12:21:30;1.45;;;1.23;;
83690;SDS011;73671;43.220;0.064;2024-02-21T12:23:57;1.25;;;1.10;;
83690;SDS011;73671;43.220;0.064;2024-02-21T12:26:36;1.10;;;1.00;;
83690;SDS011;73671;43.220;0.064;2024-02-21T12:29:01;0.98;;;0.90;;
83690;SDS011;73671;43.220;0.064;2024-02-21T12:31:27;1.20;;;1.10;;
83690;SDS011;73671;43.220;0.064;2024-02-21T12:33:52;1.50;;;1.00;;
83690;SDS011;73671;43.220;0.064;2024-02-21T12:36:18;2.40;;;1.20;;
83690;SDS011;73671;43.220;0.064;2024-02-21T12:38:44;2.28;;;1.17;;
83690;SDS011;73671;43.220;0.064;2024-02-21T12:41:09;2.53;;;1.20;;
83690;SDS011;73671;43.220;0.064;2024-02-21T12:43:35;2.55;;;1.10;;
83690;SDS011;73671;43.220;0.064;2024-02-21T12:46:00;1.77;;;1.20;;
83690;SDS011;73671;43.220;0.064;2024-02-21T12:48:26;1.20;;;1.10;;
83690;SDS011;73671;43.220;0.064;2024-02-21T12:50:51;1.30;;;1.20;;
83690;SDS011;73671;43.220;0.064;2024-02-21T12:53:17;3.50;;;1.30;;
83690;SDS011;73671;43.220;0.064;2024-02-21T12:55:46;2.85;;;1.50;;
83690;SDS011;73671;43.220;0.064;2024-02-21T12:58:11;2.10;;;1.35;;
83690;SDS011;73671;43.220;0.064;2024-02-21T13:00:38;1.30;;;1.20;;
83690;SDS011;73671;43.220;0.064;2024-02-21T13:03:04;1.23;;;1.02;;
83690;SDS011;73671;43.220;0.064;2024-02-21T13:05:29;1.67;;;1.17;;
83690;SDS011;73671;43.220;0.064;2024-02-21T13:07:57;1.15;;;0.95;;
83690;SDS011;73671;43.220;0.064;2024-02-21T13:10:23;1.75;;;1.00;;
83690;SDS011;73671;43.220;0.064;2024-02-21T13:12:48;0.90;;;0.88;;
83690;SDS011;73671;43.220;0.064;2024-02-21T13:15:13;2.10;;;1.38;;
83690;SDS011;73671;43.220;0.064;2024-02-21T13:17:41;3.00;;;1.70;;
83690;SDS011;73671;43.220;0.064;2024-02-21T13:20:06;2.72;;;1.27;;
83690;SDS011;73671;43.220;0.064;2024-02-21T13:22:33;1.08;;;0.98;;
83690;SDS011;73671;43.220;0.064;2024-02-21T13:24:59;0.82;;;0.80;;
83690;SDS011;73671;43.220;0.064;2024-02-21T13:27:24;1.98;;;1.10;;
83690;SDS011;73671;43.220;0.064;2024-02-21T13:29:49;0.93;;;0.80;;
83690;SDS011;73671;43.220;0.064;2024-02-21T13:32:15;1.75;;;1.00;;
83690;SDS011;73671;43.220;0.064;2024-02-21T13:34:40;0.88;;;0.85;;
83690;SDS011;73671;43.220;0.064;2024-02-21T13:37:07;1.63;;;0.93;;
83690;SDS011;73671;43.220;0.064;2024-02-21T13:39:34;0.93;;;0.70;;
83690;SDS011;73671;43.220;0.064;2024-02-21T13:42:00;1.55;;;0.68;;
83690;SDS011;73671;43.220;0.064;2024-02-21T13:44:25;1.02;;;0.75;;
83690;SDS011;73671;43.220;0.064;2024-02-21T13:46:51;1.48;;;0.80;;
83690;SDS011;73671;43.220;0.064;2024-02-21T13:49:16;1.90;;;1.05;;
83690;SDS011;73671;43.220;0.064;2024-02-21T13:51:41;1.73;;;0.80;;
83690;SDS011;73671;43.220;0.064;2024-02-21T13:54:09;0.90;;;0.80;;
83690;SDS011;73671;43.220;0.064;2024-02-21T13:56:36;2.38;;;0.80;;
83690;SDS011;73671;43.220;0.064;2024-02-21T13:59:02;1.02;;;0.90;;
83690;SDS011;73671;43.220;0.064;2024-02-21T14:01:27;1.17;;;0.98;;
83690;SDS011;73671;43.220;0.064;2024-02-21T14:03:57;1.70;;;0.90;;
83690;SDS011;73671;43.220;0.064;2024-02-21T14:06:22;1.10;;;1.00;;
83690;SDS011;73671;43.220;0.064;2024-02-21T14:08:47;0.80;;;0.80;;
83690;SDS011;73671;43.220;0.064;2024-02-21T14:11:13;1.10;;;1.00;;
83690;SDS011;73671;43.220;0.064;2024-02-21T14:13:39;1.33;;;0.90;;
83690;SDS011;73671;43.220;0.064;2024-02-21T14:16:09;1.52;;;1.20;;
83690;SDS011;73671;43.220;0.064;2024-02-21T14:18:36;1.27;;;0.80;;
83690;SDS011;73671;43.220;0.064;2024-02-21T14:21:03;1.13;;;0.90;;
83690;SDS011;73671;43.220;0.064;2024-02-21T14:23:28;1.73;;;1.02;;
83690;SDS011;73671;43.220;0.064;2024-02-21T14:25:54;1.55;;;0.90;;
83690;SDS011;73671;43.220;0.064;2024-02-21T14:28:19;1.17;;;0.98;;
83690;SDS011;73671;43.220;0.064;2024-02-21T14:30:45;1.58;;;1.10;;
83690;SDS011;73671;43.220;0.064;2024-02-21T14:33:12;2.63;;;1.00;;
83690;SDS011;73671;43.220;0.064;2024-02-21T14:35:38;1.20;;;1.10;;
83690;SDS011;73671;43.220;0.064;2024-02-21T14:38:03;4.45;;;1.73;;
83690;SDS011;73671;43.220;0.064;2024-02-21T14:40:29;2.17;;;1.50;;